NCAR-RAP Real-Time Weather Data

Output produced by METARs form (19 September 2014  23:54 UTC)
found at http://weather.rap.ucar.edu/surface/
 
Conditions at: KSDF observed 19 September 2014  22:56 UTC
Temperature: 25.0°C (77°F)
Dewpoint: 12.8°C (55°F) [RH = 47%]
Pressure (altimeter): 30.05 inches Hg (1017.7 mb)
[Sea-level pressure: 1017.1 mb]
Winds: from the E (80 degrees) at 8 MPH (7 knots; 3.6 m/s)
Visibility: 10 or more miles (16+ km)
Ceiling: at least 12,000 feet AGL
Clouds: few clouds at 20000 feet AGL
Present Weather: no significant weather observed at this time
KSDF 192256Z 08007KT 10SM FEW200 25/13 A3005 RMK AO2 SLP171 T02500128